createdAt,value
2024-05-09T00:01:37.395Z,59.13
2024-05-09T00:04:07.955Z,57.83
2024-05-09T00:06:38.218Z,58.28
2024-05-09T00:09:08.424Z,61.65
2024-05-09T00:11:41.877Z,62.97
2024-05-09T00:14:12.397Z,62.72
2024-05-09T00:16:42.763Z,59.28
2024-05-09T00:19:13.111Z,57.50
2024-05-09T00:21:45.547Z,56.25
2024-05-09T00:24:16.188Z,56.78
2024-05-09T00:26:49.277Z,59.28
2024-05-09T00:29:19.397Z,59.65
2024-05-09T00:31:49.580Z,56.53
2024-05-09T00:34:19.949Z,56.05
2024-05-09T00:36:50.254Z,57.95
2024-05-09T00:39:24.042Z,53.90
2024-05-09T00:41:56.744Z,57.20
2024-05-09T00:44:26.987Z,54.83
2024-05-09T00:46:57.666Z,54.60
2024-05-09T00:49:29.134Z,55.83
2024-05-09T00:52:00.767Z,52.60
2024-05-09T00:54:31.669Z,53.20
2024-05-09T00:57:06.206Z,54.85
2024-05-09T00:59:37.537Z,53.75
2024-05-09T01:02:09.586Z,54.67
2024-05-09T01:04:39.938Z,53.50
2024-05-09T01:07:10.469Z,54.22
2024-05-09T01:09:40.586Z,52.88
2024-05-09T01:12:14.018Z,52.65
2024-05-09T01:14:44.341Z,53.50
2024-05-09T01:17:14.957Z,56.28
2024-05-09T01:19:45.794Z,54.70
2024-05-09T01:22:15.986Z,56.67
2024-05-09T01:24:48.782Z,56.55
2024-05-09T01:27:19.080Z,59.13
2024-05-09T01:29:49.496Z,57.22
2024-05-09T01:32:19.910Z,55.92
2024-05-09T01:34:50.168Z,58.67
2024-05-09T01:37:20.353Z,60.95
2024-05-09T01:39:53.116Z,61.90
2024-05-09T01:42:23.296Z,62.13
2024-05-09T01:44:53.396Z,57.22
2024-05-09T01:47:23.662Z,54.92
2024-05-09T01:49:53.891Z,55.17
2024-05-09T01:52:24.028Z,56.20
2024-05-09T01:54:56.782Z,54.30
2024-05-09T01:57:26.957Z,55.38
2024-05-09T01:59:57.101Z,54.67
2024-05-09T02:02:27.545Z,54.80
2024-05-09T02:04:57.922Z,56.35
2024-05-09T02:07:28.524Z,60.20
2024-05-09T02:10:01.535Z,59.33
2024-05-09T02:12:31.683Z,61.50
2024-05-09T02:15:02.067Z,59.95
2024-05-09T02:17:32.333Z,61.33
2024-05-09T02:20:02.744Z,65.68
2024-05-09T02:22:32.979Z,62.83
2024-05-09T02:25:05.739Z,69.43
2024-05-09T02:27:36.922Z,64.03
2024-05-09T02:30:18.369Z,60.00
2024-05-09T02:32:54.281Z,61.15
2024-05-09T02:35:24.624Z,61.97
2024-05-09T02:37:54.838Z,59.80
2024-05-09T02:40:33.294Z,57.70
2024-05-09T02:43:08.413Z,58.40
2024-05-09T02:45:37.189Z,56.38
2024-05-09T02:48:08.245Z,54.97
2024-05-09T02:50:40.166Z,122.65
2024-05-09T02:53:10.644Z,79.75
2024-05-09T02:55:42.309Z,53.35
2024-05-09T02:58:13.318Z,57.17
2024-05-09T03:00:42.679Z,61.83
2024-05-09T03:03:15.510Z,63.50
2024-05-09T03:05:44.273Z,57.47
2024-05-09T03:08:14.867Z,60.67
2024-05-09T03:10:45.178Z,55.35
2024-05-09T03:13:16.892Z,56.60
2024-05-09T03:15:44.921Z,55.15
2024-05-09T03:18:15.602Z,57.28
2024-05-09T03:20:44.551Z,55.20
2024-05-09T03:23:15.220Z,55.78
2024-05-09T03:25:45.405Z,55.53
2024-05-09T03:28:15.581Z,54.13
2024-05-09T03:30:43.499Z,54.35
2024-05-09T03:33:15.529Z,53.33
2024-05-09T03:35:43.854Z,53.50
2024-05-09T03:38:14.355Z,52.47
2024-05-09T03:40:51.312Z,53.65
2024-05-09T03:43:19.923Z,49.30
2024-05-09T03:45:51.750Z,49.88
2024-05-09T03:48:19.638Z,48.47
2024-05-09T03:50:50.858Z,48.72
2024-05-09T03:53:18.614Z,50.72
2024-05-09T03:55:51.866Z,49.92
2024-05-09T03:58:19.414Z,51.22
2024-05-09T04:00:49.885Z,51.72
2024-05-09T04:03:17.486Z,50.22
2024-05-09T04:05:47.657Z,50.85
2024-05-09T04:08:15.798Z,52.08
2024-05-09T04:10:46.298Z,51.33
2024-05-09T04:13:16.520Z,50.45
2024-05-09T04:15:46.875Z,49.28
2024-05-09T04:18:14.611Z,49.90
2024-05-09T04:20:45.051Z,51.40
2024-05-09T04:23:13.990Z,52.53
2024-05-09T04:25:46.825Z,61.97
2024-05-09T04:28:17.083Z,57.15
2024-05-09T04:30:47.210Z,57.85
2024-05-09T04:33:15.577Z,62.63
2024-05-09T04:35:46.175Z,60.88
2024-05-09T04:38:14.929Z,55.40
2024-05-09T04:40:45.781Z,56.60
2024-05-09T04:43:20.592Z,52.33
2024-05-09T04:45:50.894Z,51.45
2024-05-09T04:48:18.693Z,47.10
2024-05-09T04:50:48.980Z,45.60
2024-05-09T04:53:17.044Z,45.78
2024-05-09T04:55:47.709Z,46.72
2024-05-09T04:58:17.847Z,47.03
2024-05-09T05:00:48.155Z,48.22
2024-05-09T05:03:16.697Z,48.25
2024-05-09T05:05:47.530Z,49.63
2024-05-09T05:08:16.459Z,53.40
2024-05-09T05:10:48.395Z,61.88
2024-05-09T05:13:20.975Z,56.03
2024-05-09T05:15:53.720Z,57.50
2024-05-09T05:18:22.050Z,58.75
2024-05-09T05:20:52.632Z,64.32
2024-05-09T05:23:21.653Z,61.40
2024-05-09T05:25:53.609Z,57.47
2024-05-09T05:28:24.248Z,64.13
2024-05-09T05:30:54.460Z,57.60
2024-05-09T05:33:23.031Z,58.58
2024-05-09T05:35:53.676Z,60.20
2024-05-09T05:38:24.942Z,67.18
2024-05-09T05:40:58.105Z,61.30
2024-05-09T05:43:29.647Z,63.17
2024-05-09T05:46:00.022Z,61.13
2024-05-09T05:48:27.742Z,59.88
2024-05-09T05:50:59.452Z,57.83
2024-05-09T05:53:28.638Z,58.95
2024-05-09T05:55:58.827Z,61.65
2024-05-09T05:58:29.135Z,62.95
2024-05-09T06:00:59.282Z,63.28
2024-05-09T06:03:28.695Z,60.08
2024-05-09T06:05:59.019Z,63.47
2024-05-09T06:08:30.176Z,66.43
2024-05-09T06:11:00.804Z,60.78
2024-05-09T06:13:31.064Z,58.83
2024-05-09T06:16:05.003Z,59.10
2024-05-09T06:18:32.673Z,59.33
2024-05-09T06:21:02.964Z,59.65
2024-05-09T06:23:30.525Z,61.67
2024-05-09T06:26:00.804Z,58.65
2024-05-09T06:28:31.055Z,59.47
2024-05-09T06:31:01.167Z,55.35
2024-05-09T06:33:29.100Z,57.75
2024-05-09T06:36:00.083Z,59.60
2024-05-09T06:38:27.701Z,57.83
2024-05-09T06:40:58.183Z,59.17
2024-05-09T06:43:25.780Z,57.00
2024-05-09T06:45:58.632Z,55.78
2024-05-09T06:48:26.253Z,57.53
2024-05-09T06:50:56.659Z,55.35
2024-05-09T06:53:24.630Z,57.33
2024-05-09T06:55:54.963Z,55.38
2024-05-09T06:58:22.456Z,53.72
2024-05-09T07:00:52.832Z,55.63
2024-05-09T07:03:23.064Z,55.50
2024-05-09T07:05:53.583Z,56.42
2024-05-09T07:08:21.147Z,56.58
2024-05-09T07:10:51.794Z,55.42
2024-05-09T07:13:19.379Z,55.85
2024-05-09T07:15:49.530Z,56.00
2024-05-09T07:18:20.076Z,57.58
2024-05-09T07:20:53.470Z,56.70
2024-05-09T07:23:23.915Z,56.25
2024-05-09T07:25:54.079Z,56.33
2024-05-09T07:28:21.974Z,57.47
2024-05-09T07:30:52.031Z,58.75
2024-05-09T07:33:22.776Z,57.92
2024-05-09T07:35:56.892Z,57.20
2024-05-09T07:38:24.574Z,58.25
2024-05-09T07:40:54.751Z,58.30
2024-05-09T07:43:22.506Z,58.42
2024-05-09T07:45:54.876Z,57.13
2024-05-09T07:53:07.586Z,56.70
2024-05-09T07:53:52.116Z,58.00
2024-05-09T07:56:26.089Z,56.13
2024-05-09T07:58:54.565Z,55.60
2024-05-09T08:01:26.630Z,57.28
2024-05-09T08:03:54.856Z,57.55
2024-05-09T08:06:28.439Z,56.40
2024-05-09T08:08:56.802Z,56.45
2024-05-09T08:11:27.944Z,56.33
2024-05-09T08:13:55.518Z,54.08
2024-05-09T08:16:25.796Z,55.88
2024-05-09T08:18:53.556Z,54.63
2024-05-09T08:21:23.799Z,54.42
2024-05-09T08:23:53.873Z,56.05
2024-05-09T08:26:24.044Z,57.08
2024-05-09T08:28:52.058Z,57.50
2024-05-09T08:31:22.412Z,58.00
2024-05-09T08:33:51.662Z,62.40
2024-05-09T08:36:21.954Z,62.78
2024-05-09T08:38:49.487Z,61.97
2024-05-09T08:41:22.315Z,64.28
2024-05-09T08:43:50.042Z,65.07
2024-05-09T08:46:21.409Z,66.50
2024-05-09T08:48:52.182Z,70.25
2024-05-09T08:51:22.440Z,73.05
2024-05-09T08:53:51.165Z,70.60
2024-05-09T08:56:24.564Z,71.32
2024-05-09T08:58:56.991Z,74.72
2024-05-09T09:01:28.201Z,74.95
2024-05-09T09:03:56.696Z,76.57
2024-05-09T09:06:28.480Z,79.57
2024-05-09T09:08:57.679Z,89.25
2024-05-09T09:11:30.502Z,87.47
2024-05-09T09:13:57.987Z,98.45
2024-05-09T09:16:36.113Z,92.97
2024-05-09T09:19:04.473Z,88.30
2024-05-09T09:21:34.776Z,85.30
2024-05-09T09:24:02.688Z,87.93
2024-05-09T09:26:36.557Z,92.00
2024-05-09T09:29:04.027Z,92.97
2024-05-09T09:31:34.444Z,87.53
2024-05-09T09:34:07.742Z,85.78
2024-05-09T09:36:41.691Z,90.68
2024-05-09T09:39:11.369Z,101.13
2024-05-09T09:41:48.650Z,108.05
2024-05-09T09:44:17.629Z,91.63
2024-05-09T09:46:48.703Z,74.75
2024-05-09T09:49:17.532Z,59.50
2024-05-09T09:51:48.944Z,60.67
2024-05-09T09:54:16.727Z,57.47
2024-05-09T09:56:50.246Z,53.63
2024-05-09T09:59:17.961Z,46.97
2024-05-09T10:01:49.215Z,38.47
2024-05-09T10:04:18.866Z,35.28
2024-05-09T10:06:53.633Z,33.33
2024-05-09T10:09:22.161Z,31.20
2024-05-09T10:11:59.988Z,30.88
2024-05-09T10:14:30.995Z,30.23
2024-05-09T10:17:07.809Z,31.45
2024-05-09T10:19:35.413Z,31.70
2024-05-09T10:22:06.148Z,29.98
2024-05-09T10:24:48.287Z,30.02
2024-05-09T10:27:30.081Z,28.08
2024-05-09T10:29:58.468Z,27.90
2024-05-09T10:32:32.743Z,28.55
2024-05-09T10:35:01.162Z,28.35
2024-05-09T10:37:31.638Z,26.92
2024-05-09T10:39:59.963Z,26.67
2024-05-09T10:42:33.341Z,25.45
2024-05-09T10:45:01.998Z,27.13
2024-05-09T10:47:32.354Z,27.60
2024-05-09T10:50:00.340Z,27.67
2024-05-09T10:52:30.635Z,28.13
2024-05-09T10:54:59.929Z,29.15
2024-05-09T10:57:43.304Z,28.00
2024-05-09T11:00:19.027Z,25.15
2024-05-09T11:02:53.742Z,26.98
2024-05-09T11:05:22.287Z,26.55
2024-05-09T11:07:52.989Z,27.40
2024-05-09T11:10:27.433Z,25.95
2024-05-09T11:13:05.043Z,26.95
2024-05-09T11:15:39.707Z,26.30
2024-05-09T11:18:10.219Z,26.20
2024-05-09T11:20:38.633Z,27.30
2024-05-09T11:23:09.439Z,24.48
2024-05-09T11:25:37.140Z,27.25
2024-05-09T11:28:10.993Z,25.50
2024-05-09T11:30:38.628Z,23.80
2024-05-09T11:33:09.203Z,24.42
2024-05-09T11:35:36.858Z,26.13
2024-05-09T11:38:07.262Z,25.75
2024-05-09T11:40:35.110Z,26.10
2024-05-09T11:43:05.326Z,28.63
2024-05-09T11:45:35.526Z,27.55
2024-05-09T11:48:07.752Z,27.90
2024-05-09T11:50:36.271Z,28.08
2024-05-09T11:53:06.735Z,25.80
2024-05-09T11:55:36.605Z,23.92
2024-05-09T11:58:08.342Z,26.73
2024-05-09T12:00:38.654Z,22.05
2024-05-09T12:03:09.393Z,25.90
2024-05-09T12:05:37.063Z,25.33
2024-05-09T12:08:07.937Z,23.85
2024-05-09T12:10:36.810Z,23.67
2024-05-09T12:13:08.173Z,24.20
2024-05-09T12:15:39.355Z,24.48
2024-05-09T12:18:10.295Z,24.40
2024-05-09T12:20:39.885Z,25.50
2024-05-09T12:23:11.603Z,25.48
2024-05-09T12:25:40.310Z,24.70
2024-05-09T12:28:11.207Z,28.80
2024-05-09T12:30:41.911Z,29.48
2024-05-09T12:33:13.910Z,26.45
2024-05-09T12:35:44.499Z,28.25
2024-05-09T12:38:17.056Z,25.80
2024-05-09T12:40:44.620Z,28.45
2024-05-09T12:43:14.734Z,28.65
2024-05-09T12:45:45.172Z,29.10
2024-05-09T12:48:15.725Z,28.30
2024-05-09T12:50:43.410Z,27.40
2024-05-09T12:53:13.655Z,26.83
2024-05-09T12:55:48.444Z,28.80
2024-05-09T12:58:26.486Z,29.55
2024-05-09T13:00:56.838Z,28.40
2024-05-09T13:03:27.434Z,26.80
2024-05-09T13:05:54.966Z,28.73
2024-05-09T13:08:25.338Z,30.65
2024-05-09T13:10:53.035Z,28.63
2024-05-09T13:13:23.282Z,29.15
2024-05-09T13:15:50.848Z,28.92
2024-05-09T13:18:23.689Z,32.63
2024-05-09T13:20:51.187Z,30.73
2024-05-09T13:23:21.339Z,29.27
2024-05-09T13:25:48.824Z,29.58
2024-05-09T13:28:19.472Z,30.42
2024-05-09T13:30:47.369Z,29.98
2024-05-09T13:33:17.704Z,28.23
2024-05-09T13:35:50.543Z,29.33
2024-05-09T13:38:22.470Z,26.67
2024-05-09T13:40:50.673Z,28.05
2024-05-09T13:43:23.409Z,31.48
2024-05-09T13:45:52.214Z,25.95
2024-05-09T13:48:22.594Z,26.95
2024-05-09T13:50:52.859Z,25.83
2024-05-09T13:53:23.929Z,25.35
2024-05-09T13:55:51.668Z,25.70
2024-05-09T13:58:23.376Z,15.98
2024-05-09T14:00:51.366Z,18.92
2024-05-09T14:03:21.780Z,22.75
2024-05-09T14:05:52.539Z,19.27
2024-05-09T14:08:23.248Z,21.05
2024-05-09T14:10:51.140Z,19.83
2024-05-09T14:13:21.400Z,21.60
2024-05-09T14:15:49.368Z,21.40
2024-05-09T14:18:19.893Z,19.67
2024-05-09T14:20:47.442Z,17.25
2024-05-09T14:23:21.232Z,18.73
2024-05-09T14:25:52.082Z,17.50
2024-05-09T14:28:24.628Z,22.15
2024-05-09T14:30:52.264Z,19.45
2024-05-09T14:33:26.747Z,17.80
2024-05-09T14:35:54.702Z,18.48
2024-05-09T14:38:28.013Z,19.55
2024-05-09T14:40:55.927Z,18.02
2024-05-09T14:43:26.510Z,18.52
2024-05-09T14:45:54.671Z,16.40
2024-05-09T14:48:25.585Z,16.55
2024-05-09T14:50:53.619Z,16.77
2024-05-09T14:53:27.085Z,17.58
2024-05-09T14:55:54.830Z,17.05
2024-05-09T14:58:25.709Z,17.38
2024-05-09T15:00:54.505Z,18.23
2024-05-09T15:03:25.179Z,16.75
2024-05-09T15:05:53.603Z,17.15
2024-05-09T15:08:27.739Z,18.35
2024-05-09T15:10:57.060Z,17.23
2024-05-09T15:13:29.857Z,16.83
2024-05-09T15:15:59.113Z,17.30
2024-05-09T15:18:29.654Z,17.33
2024-05-09T15:20:57.364Z,17.83
2024-05-09T15:23:30.267Z,15.73
2024-05-09T15:25:57.917Z,18.05
2024-05-09T15:28:28.232Z,17.92
2024-05-09T15:30:55.856Z,16.15
2024-05-09T15:33:27.914Z,18.13
2024-05-09T15:35:55.642Z,16.50
2024-05-09T15:38:26.425Z,18.90
2024-05-09T15:40:57.053Z,18.02
2024-05-09T15:43:28.244Z,17.58
2024-05-09T15:45:55.973Z,17.73
2024-05-09T15:48:26.649Z,19.02
2024-05-09T15:50:54.736Z,17.83
2024-05-09T15:53:25.685Z,18.73
2024-05-09T15:55:57.710Z,18.50
2024-05-09T15:58:29.800Z,17.48
2024-05-09T16:00:57.620Z,18.10
2024-05-09T16:03:28.311Z,15.68
2024-05-09T16:05:57.653Z,16.63
2024-05-09T16:08:28.445Z,14.68
2024-05-09T16:10:59.132Z,15.70
2024-05-09T16:13:29.507Z,15.18
2024-05-09T16:15:57.575Z,15.10
2024-05-09T16:18:27.983Z,15.35
2024-05-09T16:21:00.076Z,13.65
2024-05-09T16:23:30.618Z,13.18
2024-05-09T16:26:01.076Z,14.23
2024-05-09T16:28:31.500Z,13.63
2024-05-09T16:31:01.453Z,17.13
2024-05-09T16:33:32.142Z,13.07
2024-05-09T16:36:00.013Z,12.70
2024-05-09T16:38:30.855Z,14.65
2024-05-09T16:41:01.386Z,12.32
2024-05-09T16:43:32.406Z,12.75
2024-05-09T16:46:04.295Z,13.07
2024-05-09T16:48:35.194Z,13.02
2024-05-09T16:51:03.096Z,13.40
2024-05-09T16:53:33.706Z,14.32
2024-05-09T16:56:05.461Z,13.30
2024-05-09T16:58:41.322Z,13.25
2024-05-09T17:01:09.287Z,14.25
2024-05-09T17:04:05.915Z,12.15
2024-05-09T17:06:35.210Z,12.85
2024-05-09T17:09:11.482Z,12.95
2024-05-09T17:11:45.040Z,11.82
2024-05-09T17:14:15.195Z,13.40
2024-05-09T17:16:45.422Z,11.65
2024-05-09T17:19:15.666Z,12.18
2024-05-09T17:21:43.501Z,14.20
2024-05-09T17:24:13.596Z,14.32
2024-05-09T17:26:43.871Z,15.40
2024-05-09T17:29:13.973Z,15.63
2024-05-09T17:31:41.594Z,15.43
2024-05-09T17:34:11.933Z,15.30
2024-05-09T17:36:39.720Z,17.63
2024-05-09T17:39:10.082Z,14.93
2024-05-09T17:41:37.933Z,16.65
2024-05-09T17:44:10.695Z,13.10
2024-05-09T17:46:38.436Z,14.13
2024-05-09T17:49:08.853Z,13.68
2024-05-09T17:51:36.694Z,11.77
2024-05-09T17:54:07.126Z,15.65
2024-05-09T17:56:34.619Z,16.38
2024-05-09T17:59:06.477Z,14.88
2024-05-09T18:01:38.858Z,14.70
2024-05-09T18:04:09.866Z,12.82
2024-05-09T18:06:37.705Z,13.23
2024-05-09T18:09:08.513Z,13.45
2024-05-09T18:11:36.241Z,12.80
2024-05-09T18:14:06.869Z,13.30
2024-05-09T18:16:35.436Z,13.48
2024-05-09T18:19:09.769Z,13.27
2024-05-09T18:21:38.188Z,14.75
2024-05-09T18:24:10.234Z,13.05
2024-05-09T18:26:38.475Z,13.70
2024-05-09T18:29:11.485Z,13.43
2024-05-09T18:31:42.266Z,15.63
2024-05-09T18:34:13.606Z,15.23
2024-05-09T18:36:44.232Z,14.70
2024-05-09T18:39:14.721Z,13.80
2024-05-09T18:41:45.280Z,15.70
2024-05-09T18:44:13.197Z,15.23
2024-05-09T18:46:43.704Z,15.27
2024-05-09T18:49:14.754Z,14.85
2024-05-09T18:51:46.232Z,17.10
2024-05-09T18:54:14.929Z,16.48
2024-05-09T18:56:45.671Z,18.05
2024-05-09T18:59:13.674Z,17.98
2024-05-09T19:01:45.167Z,15.90
2024-05-09T19:04:20.236Z,17.45
2024-05-09T19:06:51.135Z,16.85
2024-05-09T19:09:19.167Z,16.02
2024-05-09T19:11:49.528Z,16.92
2024-05-09T19:14:18.074Z,17.50
2024-05-09T19:16:50.868Z,18.33
2024-05-09T19:19:22.394Z,16.38
2024-05-09T19:21:52.597Z,16.17
2024-05-09T19:24:20.542Z,17.67
2024-05-09T19:26:51.106Z,17.20
2024-05-09T19:29:18.680Z,16.98
2024-05-09T19:31:49.017Z,15.63
2024-05-09T19:34:17.388Z,17.30
2024-05-09T19:36:51.634Z,16.10
2024-05-09T19:39:19.329Z,14.93
2024-05-09T19:41:52.074Z,14.85
2024-05-09T19:44:19.756Z,16.38
2024-05-09T19:46:50.746Z,16.48
2024-05-09T19:49:18.657Z,18.35
2024-05-09T19:51:55.529Z,21.05
2024-05-09T19:54:23.294Z,20.83
2024-05-09T19:56:56.338Z,21.25
2024-05-09T19:59:31.849Z,20.98
2024-05-09T20:02:03.569Z,21.52
2024-05-09T20:04:31.296Z,22.08
2024-05-09T20:07:04.451Z,21.05
2024-05-09T20:09:32.285Z,22.77
2024-05-09T20:12:02.452Z,21.40
2024-05-09T20:14:30.089Z,22.92
2024-05-09T20:17:01.199Z,21.38
2024-05-09T20:19:28.774Z,22.23
2024-05-09T20:21:59.131Z,22.92
2024-05-09T20:24:29.316Z,23.63
2024-05-09T20:26:59.427Z,23.83
2024-05-09T20:29:26.865Z,25.30
2024-05-09T20:31:57.093Z,25.10
2024-05-09T20:34:27.372Z,23.17
2024-05-09T20:36:54.960Z,25.45
2024-05-09T20:39:29.096Z,27.30
2024-05-09T20:41:59.265Z,27.25
2024-05-09T20:44:29.595Z,32.42
2024-05-09T20:46:57.191Z,37.13
2024-05-09T20:49:27.453Z,45.33
2024-05-09T20:51:55.149Z,53.80
2024-05-09T20:54:25.373Z,57.38
2024-05-09T20:56:52.909Z,65.53
2024-05-09T20:59:25.728Z,66.82
2024-05-09T21:01:53.414Z,65.80
2024-05-09T21:04:24.544Z,62.90
2024-05-09T21:06:52.192Z,62.83
2024-05-09T21:09:25.586Z,67.32
2024-05-09T21:11:53.096Z,69.25
2024-05-09T21:14:25.787Z,69.43
2024-05-09T21:16:53.336Z,68.85
2024-05-09T21:19:23.536Z,69.13
2024-05-09T21:21:52.471Z,64.65
2024-05-09T21:24:23.786Z,68.82
2024-05-09T21:26:51.303Z,74.60
2024-05-09T21:29:21.432Z,72.63
2024-05-09T21:31:51.542Z,71.65
2024-05-09T21:34:21.821Z,72.97
2024-05-09T21:36:49.412Z,76.90
2024-05-09T21:39:19.577Z,76.97
2024-05-09T21:41:47.150Z,78.82
2024-05-09T21:44:17.287Z,74.93
2024-05-09T21:46:44.882Z,75.40
2024-05-09T21:49:18.518Z,74.20
2024-05-09T21:51:46.138Z,75.50
2024-05-09T21:54:16.400Z,81.57
2024-05-09T21:56:44.574Z,78.68
2024-05-09T21:59:14.678Z,82.30
2024-05-09T22:01:42.267Z,81.85
2024-05-09T22:04:12.533Z,81.97
2024-05-09T22:06:42.862Z,79.95
2024-05-09T22:09:13.092Z,80.45
2024-05-09T22:11:40.749Z,82.72
2024-05-09T22:14:10.898Z,85.03
2024-05-09T22:16:40.949Z,87.30
2024-05-09T22:19:11.218Z,88.57
2024-05-09T22:21:38.791Z,89.53
2024-05-09T22:24:11.810Z,91.82
2024-05-09T22:26:39.439Z,88.97
2024-05-09T22:29:09.554Z,86.93
2024-05-09T22:31:36.989Z,84.53
2024-05-09T22:34:07.392Z,86.80
2024-05-09T22:36:35.192Z,86.60
2024-05-09T22:39:06.610Z,87.55
2024-05-09T22:41:36.834Z,84.95
2024-05-09T22:44:06.997Z,85.05
2024-05-09T22:46:34.441Z,84.03
2024-05-09T22:49:04.739Z,81.80
2024-05-09T22:51:32.440Z,84.88
2024-05-09T22:54:02.668Z,80.88
2024-05-09T22:56:30.199Z,83.40
2024-05-09T22:59:03.976Z,82.28
2024-05-09T23:01:31.608Z,80.32
2024-05-09T23:04:02.015Z,78.32
2024-05-09T23:06:31.577Z,77.13
2024-05-09T23:09:01.710Z,79.15
2024-05-09T23:11:29.234Z,81.90
2024-05-09T23:13:59.300Z,81.75
2024-05-09T23:16:29.568Z,84.68
2024-05-09T23:18:59.898Z,85.50
2024-05-09T23:21:27.523Z,92.13
2024-05-09T23:23:57.740Z,94.20
2024-05-09T23:26:25.257Z,94.00
2024-05-09T23:28:55.435Z,93.38
2024-05-09T23:31:23.054Z,96.50
2024-05-09T23:33:56.040Z,97.25
2024-05-09T23:36:23.906Z,98.35
2024-05-09T23:38:54.033Z,100.18
2024-05-09T23:41:21.551Z,98.57
2024-05-09T23:43:51.863Z,97.75
2024-05-09T23:46:19.366Z,101.82
2024-05-09T23:48:49.634Z,100.80
2024-05-09T23:51:19.860Z,101.10
2024-05-09T23:53:50.315Z,102.40
2024-05-09T23:56:18.631Z,102.97
2024-05-09T23:58:49.982Z,100.50
